Time;durP1;ratioP1;P1;durP2;ratioP2;P2;SDS_P1;SDS_P2;PMS_P1;PMS_P2;Temp;Humidity;BMP_temperature;BMP_pressure;BME280_temperature;BME280_humidity;BME280_pressure;Samples;Min_cycle;Max_cycle;Signal;HPM_P1;HPM_P2
2023/09/02 00:01:09;;;;;;;6.60;4.77;;;;;;;;;;5026401;28;20920;-78
2023/09/02 00:03:38;;;;;;;6.83;4.60;;;;;;;;;;5023873;28;20431;-78
2023/09/02 00:06:07;;;;;;;7.50;4.83;;;;;;;;;;5027386;28;20467;-78
2023/09/02 00:08:35;;;;;;;6.90;4.77;;;;;;;;;;5027417;28;20470;-78
2023/09/02 00:11:03;;;;;;;7.47;4.90;;;;;;;;;;5026984;28;20525;-80
2023/09/02 00:13:30;;;;;;;5.87;4.03;;;;;;;;;;5023699;28;20482;-76
2023/09/02 00:16:00;;;;;;;5.93;4.57;;;;;;;;;;5023811;28;20705;-78
2023/09/02 00:18:27;;;;;;;8.87;4.30;;;;;;;;;;5025366;28;20923;-78
2023/09/02 00:20:55;;;;;;;7.23;4.77;;;;;;;;;;5025916;28;20910;-80
2023/09/02 00:23:26;;;;;;;8.60;4.63;;;;;;;;;;5022022;28;20483;-78
2023/09/02 00:25:53;;;;;;;8.60;5.43;;;;;;;;;;5024476;28;20787;-79
2023/09/02 00:28:20;;;;;;;6.33;4.00;;;;;;;;;;5025342;28;20447;-79
2023/09/02 00:30:49;;;;;;;6.87;4.80;;;;;;;;;;5026174;28;20467;-78
2023/09/02 00:33:18;;;;;;;7.13;3.83;;;;;;;;;;5025144;28;20456;-79
2023/09/02 00:35:49;;;;;;;7.27;4.53;;;;;;;;;;5023899;28;20466;-78
2023/09/02 00:38:17;;;;;;;5.90;4.00;;;;;;;;;;5026676;28;20585;-80
2023/09/02 00:40:50;;;;;;;7.37;4.40;;;;;;;;;;5023229;28;20443;-77
2023/09/02 00:43:18;;;;;;;7.50;3.90;;;;;;;;;;5024719;28;20456;-79
2023/09/02 00:45:47;;;;;;;5.70;4.20;;;;;;;;;;5023356;28;20523;-78
2023/09/02 00:48:15;;;;;;;6.00;3.87;;;;;;;;;;5024150;28;20459;-78
2023/09/02 00:50:45;;;;;;;7.20;3.83;;;;;;;;;;5026133;28;20470;-79
2023/09/02 00:53:12;;;;;;;4.80;3.23;;;;;;;;;;5027335;28;20491;-78
2023/09/02 00:55:40;;;;;;;6.90;3.47;;;;;;;;;;5028856;28;20528;-78
2023/09/02 00:58:14;;;;;;;7.13;3.87;;;;;;;;;;5026447;28;20490;-79
2023/09/02 01:00:42;;;;;;;8.13;4.43;;;;;;;;;;5027038;28;20455;-79
2023/09/02 01:03:10;;;;;;;6.87;3.53;;;;;;;;;;5024484;28;20456;-80
2023/09/02 01:05:37;;;;;;;7.00;4.30;;;;;;;;;;5025107;28;20513;-80
2023/09/02 01:08:06;;;;;;;6.13;3.40;;;;;;;;;;5024453;28;20459;-80
2023/09/02 01:10:35;;;;;;;7.83;3.40;;;;;;;;;;5026065;28;20451;-78
2023/09/02 01:13:03;;;;;;;5.83;3.67;;;;;;;;;;5026831;28;20940;-78
2023/09/02 01:15:30;;;;;;;4.60;3.73;;;;;;;;;;5033037;28;20466;-79
2023/09/02 01:17:58;;;;;;;6.70;3.33;;;;;;;;;;5028160;28;20490;-79
2023/09/02 01:20:26;;;;;;;5.50;3.77;;;;;;;;;;5029758;28;20502;-80
2023/09/02 01:22:59;;;;;;;6.90;3.70;;;;;;;;;;5030231;28;20466;-79
2023/09/02 01:25:39;;;;;;;4.90;3.60;;;;;;;;;;5030242;28;20513;-79
2023/09/02 01:28:11;;;;;;;5.87;3.80;;;;;;;;;;5029657;28;20439;-79
2023/09/02 01:30:40;;;;;;;5.53;4.00;;;;;;;;;;5028944;28;20904;-79
2023/09/02 01:33:10;;;;;;;10.80;3.70;;;;;;;;;;5030024;28;20506;-79
2023/09/02 01:35:38;;;;;;;5.07;3.60;;;;;;;;;;5025450;28;20460;-77
2023/09/02 01:38:07;;;;;;;4.70;3.73;;;;;;;;;;5029658;28;20486;-78
2023/09/02 01:40:36;;;;;;;6.20;4.40;;;;;;;;;;5026564;28;20419;-78
2023/09/02 01:43:05;;;;;;;6.20;4.10;;;;;;;;;;5025377;28;20522;-78
2023/09/02 01:45:35;;;;;;;6.37;4.30;;;;;;;;;;5026254;28;20529;-78
2023/09/02 01:48:02;;;;;;;6.57;3.50;;;;;;;;;;5025350;28;20451;-77
2023/09/02 01:50:30;;;;;;;5.53;3.30;;;;;;;;;;5025512;28;20466;-78
2023/09/02 01:52:58;;;;;;;5.80;3.50;;;;;;;;;;5027018;28;20475;-78
2023/09/02 01:55:26;;;;;;;5.57;3.80;;;;;;;;;;5026112;28;20525;-78
2023/09/02 01:57:54;;;;;;;7.47;3.57;;;;;;;;;;5028859;28;20455;-79
2023/09/02 02:00:22;;;;;;;6.23;4.10;;;;;;;;;;5027146;28;20841;-79
2023/09/02 02:02:53;;;;;;;4.40;3.20;;;;;;;;;;5032326;28;20474;-79
2023/09/02 02:05:22;;;;;;;6.27;3.00;;;;;;;;;;5031139;28;20463;-79
2023/09/02 02:07:52;;;;;;;6.37;4.00;;;;;;;;;;5031785;28;20545;-79
2023/09/02 02:10:23;;;;;;;7.63;3.80;;;;;;;;;;5030821;28;20550;-79
2023/09/02 02:12:51;;;;;;;6.43;4.00;;;;;;;;;;5030855;28;20825;-79
2023/09/02 02:15:18;;;;;;;5.50;3.57;;;;;;;;;;5028655;28;20475;-79
2023/09/02 02:17:46;;;;;;;5.40;3.70;;;;;;;;;;5028321;28;20753;-78
2023/09/02 02:20:18;;;;;;;5.83;3.80;;;;;;;;;;5031684;28;20455;-79
2023/09/02 02:22:46;;;;;;;8.10;3.80;;;;;;;;;;5028848;28;20446;-79
2023/09/02 02:25:13;;;;;;;7.47;3.60;;;;;;;;;;5031160;28;20542;-79
2023/09/02 02:27:40;;;;;;;5.57;3.57;;;;;;;;;;5030558;28;20451;-79
2023/09/02 02:30:08;;;;;;;6.00;3.33;;;;;;;;;;5030704;28;20451;-79
2023/09/02 02:32:36;;;;;;;4.30;3.20;;;;;;;;;;5029091;28;20522;-78
2023/09/02 02:35:05;;;;;;;8.30;3.63;;;;;;;;;;5029533;28;20451;-78
2023/09/02 02:37:34;;;;;;;6.13;3.90;;;;;;;;;;5029320;28;20463;-78
2023/09/02 02:40:06;;;;;;;4.37;3.23;;;;;;;;;;5027027;28;20498;-78
2023/09/02 02:42:34;;;;;;;5.80;3.30;;;;;;;;;;5029328;28;20484;-79
2023/09/02 02:45:07;;;;;;;7.27;3.70;;;;;;;;;;5028452;28;20451;-79
2023/09/02 02:47:35;;;;;;;5.13;3.50;;;;;;;;;;5027357;28;20448;-79
2023/09/02 02:50:16;;;;;;;8.40;3.10;;;;;;;;;;5027657;28;20470;-78
2023/09/02 02:52:45;;;;;;;6.87;3.40;;;;;;;;;;5028436;28;20558;-78
2023/09/02 02:55:13;;;;;;;4.73;3.17;;;;;;;;;;5026776;28;20451;-78
2023/09/02 02:57:40;;;;;;;8.33;3.50;;;;;;;;;;5027203;28;20459;-80
2023/09/02 03:00:09;;;;;;;4.40;3.30;;;;;;;;;;5022647;28;20501;-78
2023/09/02 03:02:36;;;;;;;8.53;5.20;;;;;;;;;;5023045;28;20778;-79
2023/09/02 03:05:04;;;;;;;7.63;3.57;;;;;;;;;;5025399;28;20498;-79
2023/09/02 03:07:32;;;;;;;4.87;2.70;;;;;;;;;;5023082;28;20494;-78
2023/09/02 03:10:08;;;;;;;9.20;3.37;;;;;;;;;;5024418;28;20451;-78
2023/09/02 03:12:35;;;;;;;5.13;3.43;;;;;;;;;;5026096;28;20470;-79
2023/09/02 03:15:03;;;;;;;5.47;3.13;;;;;;;;;;5026086;28;20857;-79
2023/09/02 03:17:30;;;;;;;5.20;3.40;;;;;;;;;;5028076;28;20452;-77
2023/09/02 03:19:58;;;;;;;5.63;3.10;;;;;;;;;;5026089;28;20455;-78
2023/09/02 03:22:25;;;;;;;4.07;2.80;;;;;;;;;;5027374;28;20431;-78
2023/09/02 03:24:54;;;;;;;4.27;2.63;;;;;;;;;;5026272;28;20459;-78
2023/09/02 03:27:29;;;;;;;6.00;3.30;;;;;;;;;;5027816;28;20486;-78
2023/09/02 03:29:56;;;;;;;6.50;2.77;;;;;;;;;;5024308;28;20498;-79
2023/09/02 03:32:26;;;;;;;7.10;3.30;;;;;;;;;;5026105;28;20518;-78
2023/09/02 03:34:54;;;;;;;6.07;3.97;;;;;;;;;;5022404;28;20470;-79
2023/09/02 03:37:21;;;;;;;5.63;3.73;;;;;;;;;;5025568;28;20459;-78
2023/09/02 03:39:49;;;;;;;6.60;3.10;;;;;;;;;;5023852;28;20467;-78
2023/09/02 03:42:16;;;;;;;5.57;3.60;;;;;;;;;;5023338;28;20526;-78
2023/09/02 03:44:45;;;;;;;4.73;3.10;;;;;;;;;;5027525;28;20518;-78
2023/09/02 03:47:13;;;;;;;5.20;3.57;;;;;;;;;;5024640;28;20467;-78
2023/09/02 03:49:41;;;;;;;5.63;3.37;;;;;;;;;;5028360;28;20455;-78
2023/09/02 03:52:08;;;;;;;6.30;3.43;;;;;;;;;;5025311;28;20462;-79
2023/09/02 03:54:37;;;;;;;6.27;3.17;;;;;;;;;;5021472;28;20466;-79
2023/09/02 03:57:05;;;;;;;3.87;2.73;;;;;;;;;;5022202;28;20506;-79
2023/09/02 03:59:33;;;;;;;4.80;3.20;;;;;;;;;;5025483;28;20466;-78
2023/09/02 04:02:02;;;;;;;4.53;3.23;;;;;;;;;;5025515;28;20451;-79
2023/09/02 04:04:29;;;;;;;4.70;3.77;;;;;;;;;;5019491;28;20459;-77
2023/09/02 04:06:57;;;;;;;5.77;3.80;;;;;;;;;;5025145;28;20463;-78
2023/09/02 04:09:24;;;;;;;6.33;3.50;;;;;;;;;;5021219;28;20549;-78
2023/09/02 04:11:52;;;;;;;5.47;3.63;;;;;;;;;;5024407;28;20524;-78
2023/09/02 04:14:20;;;;;;;4.40;3.43;;;;;;;;;;5019952;28;20483;-80
2023/09/02 04:16:47;;;;;;;4.57;3.47;;;;;;;;;;5024954;28;20873;-78
2023/09/02 04:19:17;;;;;;;4.47;3.00;;;;;;;;;;5024118;28;20553;-78
2023/09/02 04:21:45;;;;;;;5.10;2.90;;;;;;;;;;5023105;28;20501;-79
2023/09/02 04:24:12;;;;;;;5.50;3.50;;;;;;;;;;5023795;28;20523;-78
2023/09/02 04:26:40;;;;;;;4.90;2.93;;;;;;;;;;5020184;28;20443;-78
2023/09/02 04:29:07;;;;;;;5.63;2.87;;;;;;;;;;5023874;28;20443;-78
2023/09/02 04:31:34;;;;;;;9.20;3.30;;;;;;;;;;5020546;28;20455;-77
2023/09/02 04:34:02;;;;;;;6.00;3.60;;;;;;;;;;5025037;28;20538;-77
2023/09/02 04:36:31;;;;;;;5.37;3.20;;;;;;;;;;5024810;28;20533;-78
2023/09/02 04:38:58;;;;;;;5.53;3.60;;;;;;;;;;5025438;28;20455;-77
2023/09/02 04:41:26;;;;;;;6.13;3.43;;;;;;;;;;5024176;28;20443;-80
2023/09/02 04:43:53;;;;;;;6.40;3.17;;;;;;;;;;5023690;28;20455;-80
2023/09/02 04:46:21;;;;;;;6.00;3.10;;;;;;;;;;5025954;28;20459;-79
2023/09/02 04:48:48;;;;;;;5.40;3.30;;;;;;;;;;5019232;28;20458;-79
2023/09/02 04:51:16;;;;;;;4.00;2.87;;;;;;;;;;5020175;28;20493;-79
2023/09/02 04:53:45;;;;;;;5.57;3.17;;;;;;;;;;5022898;28;20795;-78
2023/09/02 04:56:13;;;;;;;7.03;3.30;;;;;;;;;;5020774;28;20538;-78
2023/09/02 04:58:40;;;;;;;5.07;3.13;;;;;;;;;;5023049;28;20972;-78
2023/09/02 05:01:11;;;;;;;7.43;2.90;;;;;;;;;;5022014;28;20612;-79
2023/09/02 05:03:39;;;;;;;4.70;3.57;;;;;;;;;;5017620;28;20474;-77
2023/09/02 05:06:10;;;;;;;5.00;2.90;;;;;;;;;;5017701;28;20468;-78
2023/09/02 05:08:37;;;;;;;5.67;3.30;;;;;;;;;;5023066;28;20471;-79
2023/09/02 05:11:07;;;;;;;4.70;2.80;;;;;;;;;;5021856;28;20447;-77
2023/09/02 05:13:34;;;;;;;5.23;2.60;;;;;;;;;;5022072;28;20517;-78
2023/09/02 05:16:02;;;;;;;5.60;2.80;;;;;;;;;;5022268;28;20475;-78
2023/09/02 05:18:30;;;;;;;7.00;3.30;;;;;;;;;;5023043;28;20494;-78
2023/09/02 05:20:58;;;;;;;5.50;3.10;;;;;;;;;;5022048;28;20586;-78
2023/09/02 05:23:26;;;;;;;7.20;2.80;;;;;;;;;;5022818;28;20542;-79
2023/09/02 05:25:57;;;;;;;5.70;2.93;;;;;;;;;;5027881;28;20672;-78
2023/09/02 05:28:28;;;;;;;5.43;3.37;;;;;;;;;;5027369;28;20459;-79
2023/09/02 05:30:56;;;;;;;5.63;2.77;;;;;;;;;;5027614;28;20447;-78
2023/09/02 05:33:29;;;;;;;5.77;3.97;;;;;;;;;;5025933;28;20573;-78
2023/09/02 05:35:57;;;;;;;6.33;4.10;;;;;;;;;;5028053;28;20474;-78
2023/09/02 05:38:27;;;;;;;6.17;3.00;;;;;;;;;;5023263;28;20447;-79
2023/09/02 05:40:55;;;;;;;5.40;3.57;;;;;;;;;;5016261;28;20492;-78
2023/09/02 05:43:26;;;;;;;6.40;3.30;;;;;;;;;;5019971;28;20535;-79
2023/09/02 05:45:55;;;;;;;6.03;3.20;;;;;;;;;;5026142;28;20497;-78
2023/09/02 05:48:23;;;;;;;9.17;3.80;;;;;;;;;;5026878;28;20473;-82
2023/09/02 05:50:51;;;;;;;7.40;3.80;;;;;;;;;;5025922;28;20451;-79
2023/09/02 05:53:19;;;;;;;10.27;3.33;;;;;;;;;;5022066;28;20864;-79
2023/09/02 05:55:54;;;;;;;5.13;3.20;;;;;;;;;;5022208;28;20641;-79
2023/09/02 05:58:21;;;;;;;6.67;3.70;;;;;;;;;;5019504;28;20476;-79
2023/09/02 06:00:49;;;;;;;5.50;3.20;;;;;;;;;;5024363;28;20772;-79
2023/09/02 06:03:18;;;;;;;6.40;3.43;;;;;;;;;;5027048;28;20492;-79
2023/09/02 06:05:45;;;;;;;4.73;3.67;;;;;;;;;;5026897;28;20514;-79
2023/09/02 06:08:13;;;;;;;8.27;4.07;;;;;;;;;;5028242;28;20520;-79
2023/09/02 06:10:40;;;;;;;7.50;3.70;;;;;;;;;;5018698;28;20491;-78
2023/09/02 06:13:08;;;;;;;5.17;3.13;;;;;;;;;;5020174;28;20560;-78
2023/09/02 06:15:35;;;;;;;5.87;3.63;;;;;;;;;;5017799;28;20455;-78
2023/09/02 06:18:03;;;;;;;4.80;3.47;;;;;;;;;;5024093;28;20479;-78
2023/09/02 06:20:32;;;;;;;5.73;3.60;;;;;;;;;;5024380;28;20467;-77
2023/09/02 06:22:59;;;;;;;4.70;2.80;;;;;;;;;;5023752;28;20463;-79
2023/09/02 06:25:26;;;;;;;7.13;4.17;;;;;;;;;;5025900;28;20447;-78
2023/09/02 06:27:54;;;;;;;5.70;3.50;;;;;;;;;;5023958;28;20740;-78
2023/09/02 06:30:22;;;;;;;6.03;4.07;;;;;;;;;;5024088;28;20451;-79
2023/09/02 06:32:49;;;;;;;6.23;3.83;;;;;;;;;;5023829;28;20455;-79
2023/09/02 06:35:17;;;;;;;4.63;3.20;;;;;;;;;;5014296;28;20741;-78
2023/09/02 06:37:46;;;;;;;7.00;5.60;;;;;;;;;;5020693;28;20466;-78
2023/09/02 06:40:19;;;;;;;5.80;4.20;;;;;;;;;;5011240;28;20536;-78
2023/09/02 06:42:47;;;;;;;6.30;3.60;;;;;;;;;;5021918;28;20455;-77
2023/09/02 06:45:17;;;;;;;6.07;3.40;;;;;;;;;;5023964;28;20463;-79
2023/09/02 06:47:45;;;;;;;7.90;4.27;;;;;;;;;;5021200;28;20451;-78
2023/09/02 06:50:17;;;;;;;7.53;3.53;;;;;;;;;;5023272;28;20447;-77
2023/09/02 06:52:46;;;;;;;5.23;3.70;;;;;;;;;;5026093;28;20521;-78
2023/09/02 06:55:15;;;;;;;8.27;4.53;;;;;;;;;;5022476;28;20529;-79
2023/09/02 06:57:44;;;;;;;6.10;4.00;;;;;;;;;;5023967;28;20477;-78
2023/09/02 07:00:17;;;;;;;9.60;6.30;;;;;;;;;;5026870;28;20463;-79
2023/09/02 07:02:45;;;;;;;11.37;4.80;;;;;;;;;;5004525;28;20444;-80
2023/09/02 07:05:12;;;;;;;7.30;4.90;;;;;;;;;;5007639;28;21138;-80
2023/09/02 07:07:43;;;;;;;5.50;4.50;;;;;;;;;;5024284;28;20473;-80
2023/09/02 07:10:22;;;;;;;7.57;4.40;;;;;;;;;;5025451;28;20452;-78
2023/09/02 07:12:52;;;;;;;8.60;4.67;;;;;;;;;;5026025;28;20538;-78
2023/09/02 07:15:19;;;;;;;5.77;4.20;;;;;;;;;;5026181;28;20967;-79
2023/09/02 07:17:47;;;;;;;10.00;4.67;;;;;;;;;;5024492;28;20459;-77
2023/09/02 07:20:18;;;;;;;7.53;4.93;;;;;;;;;;5022997;28;20443;-78
2023/09/02 07:22:46;;;;;;;5.10;4.00;;;;;;;;;;5023271;28;20462;-78
2023/09/02 07:25:16;;;;;;;6.90;4.70;;;;;;;;;;5005490;28;20882;-77
2023/09/02 07:27:43;;;;;;;5.60;4.07;;;;;;;;;;5000765;28;20463;-77
2023/09/02 07:30:15;;;;;;;6.17;4.10;;;;;;;;;;5015068;28;20574;-78
2023/09/02 07:32:43;;;;;;;6.77;4.07;;;;;;;;;;5021237;28;20559;-78
2023/09/02 07:35:11;;;;;;;8.83;4.80;;;;;;;;;;5023004;28;20510;-78
2023/09/02 07:37:39;;;;;;;6.63;5.47;;;;;;;;;;5025508;28;20451;-78
2023/09/02 07:40:08;;;;;;;7.50;4.27;;;;;;;;;;5024614;28;20494;-79
2023/09/02 07:42:37;;;;;;;13.50;4.50;;;;;;;;;;5023741;28;20479;-77
2023/09/02 07:45:05;;;;;;;5.80;3.20;;;;;;;;;;5022993;28;20469;-78
2023/09/02 07:47:33;;;;;;;5.33;2.50;;;;;;;;;;5025256;28;20540;-77
2023/09/02 07:50:06;;;;;;;7.10;3.13;;;;;;;;;;5022704;28;20554;-78
2023/09/02 07:52:33;;;;;;;4.50;2.50;;;;;;;;;;5024671;28;20467;-79
2023/09/02 07:55:03;;;;;;;4.13;2.60;;;;;;;;;;5009912;28;20519;-79
2023/09/02 07:57:31;;;;;;;5.20;1.67;;;;;;;;;;5005124;28;20533;-77
2023/09/02 08:00:06;;;;;;;5.40;3.23;;;;;;;;;;5002544;28;20458;-78
2023/09/02 08:02:37;;;;;;;7.37;3.10;;;;;;;;;;5003815;28;20526;-79
2023/09/02 08:05:06;;;;;;;6.10;2.40;;;;;;;;;;5005431;28;20436;-79
2023/09/02 08:07:33;;;;;;;4.70;2.13;;;;;;;;;;5003962;28;20486;-78
2023/09/02 08:10:07;;;;;;;3.67;1.70;;;;;;;;;;5021943;28;20566;-77
2023/09/02 08:12:34;;;;;;;3.43;1.73;;;;;;;;;;5019067;28;20472;-77
2023/09/02 08:15:03;;;;;;;3.93;2.10;;;;;;;;;;5008310;28;20488;-78
2023/09/02 08:17:31;;;;;;;5.00;2.30;;;;;;;;;;5021132;28;20455;-77
2023/09/02 08:19:59;;;;;;;3.30;1.40;;;;;;;;;;5020009;28;20537;-77
2023/09/02 08:22:27;;;;;;;5.80;1.37;;;;;;;;;;5014198;28;20505;-77
2023/09/02 08:24:59;;;;;;;4.00;1.60;;;;;;;;;;5018681;28;20499;-77
2023/09/02 08:27:47;;;;;;;5.40;2.73;;;;;;;;;;5022111;28;20467;-78
2023/09/02 08:30:24;;;;;;;4.70;1.83;;;;;;;;;;5010366;28;20483;-76
2023/09/02 08:32:52;;;;;;;3.73;1.60;;;;;;;;;;5007215;28;20546;-78
2023/09/02 08:35:22;;;;;;;3.27;1.57;;;;;;;;;;5020223;28;20485;-77
2023/09/02 08:37:52;;;;;;;4.00;1.77;;;;;;;;;;5018933;28;20494;-79
2023/09/02 08:40:21;;;;;;;3.10;1.50;;;;;;;;;;5023902;28;20531;-79
2023/09/02 08:42:50;;;;;;;4.00;1.70;;;;;;;;;;5023429;28;20606;-78
2023/09/02 08:45:23;;;;;;;3.97;1.50;;;;;;;;;;5019821;28;20552;-78
2023/09/02 08:48:09;;;;;;;8.73;1.77;;;;;;;;;;5021104;28;20804;-78
2023/09/02 08:50:47;;;;;;;4.90;2.20;;;;;;;;;;5005281;28;20546;-77
2023/09/02 08:53:16;;;;;;;6.47;3.83;;;;;;;;;;5010838;28;20521;-78
2023/09/02 08:56:17;;;;;;;10.73;2.90;;;;;;;;;;5022927;28;20438;-79
2023/09/02 08:58:47;;;;;;;7.57;2.70;;;;;;;;;;5004727;28;20679;-79
2023/09/02 09:01:23;;;;;;;3.80;1.97;;;;;;;;;;5009720;28;20447;-77
2023/09/02 09:04:04;;;;;;;4.03;1.87;;;;;;;;;;5012674;28;20466;-79
2023/09/02 09:06:45;;;;;;;4.40;1.53;;;;;;;;;;5020960;28;20534;-79
2023/09/02 09:09:16;;;;;;;4.50;2.63;;;;;;;;;;5004369;28;20964;-79
2023/09/02 09:11:53;;;;;;;5.47;2.73;;;;;;;;;;5026532;28;20460;-77
2023/09/02 09:14:28;;;;;;;7.07;2.70;;;;;;;;;;5024305;28;20471;-79
2023/09/02 09:16:58;;;;;;;4.73;2.37;;;;;;;;;;5021986;28;20501;-79
2023/09/02 09:19:33;;;;;;;6.33;2.60;;;;;;;;;;5024109;28;20479;-80
2023/09/02 09:22:15;;;;;;;6.83;1.90;;;;;;;;;;5022314;28;20453;-78
2023/09/02 09:24:47;;;;;;;5.33;2.47;;;;;;;;;;5021831;28;20466;-78
2023/09/02 09:27:22;;;;;;;4.63;2.23;;;;;;;;;;5013632;28;20443;-79
2023/09/02 09:33:04;;;;;;;6.13;2.37;;;;;;;;;;5015675;28;20830;-78
2023/09/02 09:35:40;;;;;;;3.90;2.10;;;;;;;;;;5019460;28;20490;-78
2023/09/02 09:38:12;;;;;;;4.30;2.30;;;;;;;;;;5023193;28;20474;-79
2023/09/02 09:40:40;;;;;;;4.63;2.33;;;;;;;;;;5021969;28;20624;-78
2023/09/02 09:43:17;;;;;;;9.13;2.00;;;;;;;;;;5020004;28;20463;-79
2023/09/02 09:45:55;;;;;;;11.30;4.40;;;;;;;;;;5019428;28;21197;-79
2023/09/02 09:49:04;;;;;;;4.73;1.93;;;;;;;;;;5013666;28;20883;-78
2023/09/02 09:51:35;;;;;;;5.40;2.37;;;;;;;;;;5020779;28;20489;-79
2023/09/02 09:54:05;;;;;;;3.40;1.83;;;;;;;;;;5023937;28;20478;-77
2023/09/02 09:56:33;;;;;;;5.60;2.23;;;;;;;;;;5021846;28;20491;-78
2023/09/02 09:59:17;;;;;;;5.00;2.50;;;;;;;;;;5025313;28;20453;-79
2023/09/02 10:01:51;;;;;;;4.47;2.40;;;;;;;;;;5023622;28;20478;-78
2023/09/02 10:04:20;;;;;;;5.00;2.27;;;;;;;;;;5023796;28;20463;-79
2023/09/02 10:06:51;;;;;;;4.37;2.73;;;;;;;;;;5014769;28;20471;-79
2023/09/02 10:09:21;;;;;;;3.50;2.10;;;;;;;;;;5015818;28;20481;-78
2023/09/02 10:11:48;;;;;;;8.70;2.30;;;;;;;;;;5014992;28;20467;-78
2023/09/02 10:14:20;;;;;;;5.20;2.60;;;;;;;;;;5005692;28;20487;-79
2023/09/02 10:16:54;;;;;;;6.20;2.80;;;;;;;;;;5025101;28;20447;-78
2023/09/02 10:19:22;;;;;;;4.67;2.20;;;;;;;;;;5022740;28;20536;-77
2023/09/02 10:21:51;;;;;;;8.37;2.93;;;;;;;;;;5009385;28;20507;-79
2023/09/02 10:24:20;;;;;;;6.90;4.63;;;;;;;;;;5024549;28;20436;-78
2023/09/02 10:26:51;;;;;;;6.43;3.00;;;;;;;;;;5028787;28;20444;-77
2023/09/02 10:29:25;;;;;;;7.30;3.03;;;;;;;;;;5028301;28;20459;-78
2023/09/02 10:31:57;;;;;;;7.53;3.83;;;;;;;;;;5025583;28;20551;-79
2023/09/02 10:34:29;;;;;;;5.73;2.40;;;;;;;;;;5026479;28;20476;-77
2023/09/02 10:37:02;;;;;;;5.43;2.10;;;;;;;;;;5013350;28;20459;-79
2023/09/02 10:39:39;;;;;;;8.70;3.07;;;;;;;;;;5026403;28;20884;-79
2023/09/02 10:42:10;;;;;;;4.60;2.13;;;;;;;;;;5023656;28;20876;-79
2023/09/02 10:44:42;;;;;;;6.30;2.57;;;;;;;;;;5025129;28;20546;-78
2023/09/02 10:47:11;;;;;;;4.20;2.27;;;;;;;;;;5022090;28;21142;-78
2023/09/02 10:49:39;;;;;;;3.50;1.80;;;;;;;;;;5025495;28;20498;-78
2023/09/02 10:52:10;;;;;;;5.27;2.70;;;;;;;;;;5025253;28;20455;-78
2023/09/02 10:54:57;;;;;;;6.57;3.30;;;;;;;;;;5026256;28;20475;-79
2023/09/02 10:57:25;;;;;;;7.80;2.53;;;;;;;;;;5023391;28;20463;-77
2023/09/02 11:00:17;;;;;;;4.07;1.60;;;;;;;;;;5024527;28;20443;-78
2023/09/02 11:02:52;;;;;;;3.10;1.77;;;;;;;;;;5007284;28;20886;-78
2023/09/02 11:05:34;;;;;;;4.70;2.10;;;;;;;;;;5022113;28;20459;-82
2023/09/02 11:08:23;;;;;;;4.60;2.30;;;;;;;;;;5024466;28;20494;-79
2023/09/02 11:10:55;;;;;;;6.97;2.63;;;;;;;;;;5022589;28;20463;-77
2023/09/02 11:13:25;;;;;;;3.73;1.80;;;;;;;;;;5019547;28;20456;-78
2023/09/02 11:16:07;;;;;;;4.73;2.30;;;;;;;;;;5022077;28;20490;-78
2023/09/02 11:18:40;;;;;;;5.70;2.00;;;;;;;;;;5020175;28;20490;-78
2023/09/02 11:21:07;;;;;;;6.33;1.93;;;;;;;;;;5012651;28;20486;-77
2023/09/02 11:23:37;;;;;;;3.97;1.83;;;;;;;;;;5015114;28;20455;-77
2023/09/02 11:26:07;;;;;;;5.13;2.20;;;;;;;;;;5020494;28;20515;-79
2023/09/02 11:28:36;;;;;;;4.73;2.07;;;;;;;;;;5020340;28;20471;-77
2023/09/02 11:31:09;;;;;;;7.00;2.10;;;;;;;;;;5018648;28;20451;-78
2023/09/02 11:33:38;;;;;;;5.37;1.60;;;;;;;;;;5018092;28;20844;-78
2023/09/02 11:36:07;;;;;;;4.80;2.17;;;;;;;;;;5020201;28;20732;-79
2023/09/02 11:38:37;;;;;;;4.60;2.10;;;;;;;;;;5019499;28;20468;-77
2023/09/02 11:41:07;;;;;;;5.30;2.27;;;;;;;;;;5016763;28;20463;-78
2023/09/02 11:43:36;;;;;;;3.97;1.70;;;;;;;;;;5020425;28;20478;-77
2023/09/02 11:46:05;;;;;;;6.63;4.23;;;;;;;;;;5020800;28;20737;-80
2023/09/02 11:48:33;;;;;;;6.60;2.57;;;;;;;;;;4986775;28;21016;-78
2023/09/02 11:51:05;;;;;;;5.63;2.20;;;;;;;;;;5016009;28;20464;-79
2023/09/02 11:53:35;;;;;;;5.43;2.20;;;;;;;;;;5002125;28;20803;-79
2023/09/02 11:56:05;;;;;;;5.40;1.80;;;;;;;;;;5003204;28;21193;-79
2023/09/02 11:58:33;;;;;;;6.60;1.80;;;;;;;;;;5004006;28;20451;-78
2023/09/02 12:01:02;;;;;;;4.90;2.60;;;;;;;;;;5005240;28;20981;-78
2023/09/02 12:03:31;;;;;;;5.63;2.10;;;;;;;;;;5001266;28;20467;-79
2023/09/02 12:06:00;;;;;;;4.70;1.80;;;;;;;;;;5002327;28;20456;-78
2023/09/02 12:08:28;;;;;;;4.83;1.90;;;;;;;;;;5000227;28;20519;-78
2023/09/02 12:10:55;;;;;;;3.37;1.87;;;;;;;;;;4999555;28;20775;-79
2023/09/02 12:13:25;;;;;;;5.53;1.60;;;;;;;;;;5005314;28;20455;-81
2023/09/02 12:15:53;;;;;;;3.27;1.40;;;;;;;;;;5002321;28;20562;-78
2023/09/02 12:18:22;;;;;;;3.33;1.57;;;;;;;;;;5019186;28;20541;-77
2023/09/02 12:20:51;;;;;;;3.03;1.60;;;;;;;;;;5021806;28;20569;-77
2023/09/02 12:23:20;;;;;;;3.90;1.47;;;;;;;;;;5021233;28;20457;-78
2023/09/02 12:26:02;;;;;;;4.37;1.60;;;;;;;;;;5019931;28;20436;-77
2023/09/02 12:28:31;;;;;;;3.63;1.53;;;;;;;;;;5018432;28;20447;-78
2023/09/02 12:30:59;;;;;;;11.30;2.70;;;;;;;;;;5013593;28;20519;-79
2023/09/02 12:33:29;;;;;;;3.83;1.83;;;;;;;;;;5002614;28;20727;-80
2023/09/02 12:36:00;;;;;;;4.30;2.20;;;;;;;;;;5000083;28;20503;-79
2023/09/02 12:38:30;;;;;;;3.00;1.50;;;;;;;;;;5012980;28;20513;-77
2023/09/02 12:40:59;;;;;;;4.50;2.20;;;;;;;;;;5025779;28;20526;-79
2023/09/02 12:43:29;;;;;;;3.47;1.63;;;;;;;;;;5024390;28;20459;-80
2023/09/02 12:45:59;;;;;;;5.20;1.90;;;;;;;;;;5007358;28;20460;-79
2023/09/02 12:48:27;;;;;;;5.80;2.33;;;;;;;;;;5021460;28;20463;-79
2023/09/02 12:50:55;;;;;;;4.83;1.73;;;;;;;;;;5018100;28;20574;-78
2023/09/02 12:53:24;;;;;;;5.00;2.57;;;;;;;;;;5018586;28;20538;-78
2023/09/02 12:55:52;;;;;;;3.80;1.40;;;;;;;;;;5019759;28;20553;-78
2023/09/02 12:58:20;;;;;;;5.10;2.00;;;;;;;;;;5023824;28;20443;-79
2023/09/02 13:00:49;;;;;;;3.60;1.70;;;;;;;;;;5020936;28;20459;-80
2023/09/02 13:03:20;;;;;;;4.07;1.90;;;;;;;;;;5015780;28;20459;-78
2023/09/02 13:05:50;;;;;;;3.50;1.40;;;;;;;;;;5020823;28;20864;-79
2023/09/02 13:08:18;;;;;;;3.70;1.63;;;;;;;;;;5019564;28;20596;-79
2023/09/02 13:10:50;;;;;;;5.83;1.87;;;;;;;;;;5024590;28;20470;-79
2023/09/02 13:13:18;;;;;;;3.60;1.60;;;;;;;;;;5025335;28;20522;-78
2023/09/02 13:15:46;;;;;;;6.47;1.90;;;;;;;;;;5021303;28;20482;-78
2023/09/02 13:18:13;;;;;;;4.57;1.73;;;;;;;;;;5011746;28;20508;-78
2023/09/02 13:20:42;;;;;;;3.43;1.57;;;;;;;;;;5014344;28;20454;-78
2023/09/02 13:23:12;;;;;;;4.67;1.90;;;;;;;;;;5021909;28;20459;-78
2023/09/02 13:25:40;;;;;;;4.17;1.70;;;;;;;;;;5023001;28;20494;-80
2023/09/02 13:28:10;;;;;;;4.47;1.90;;;;;;;;;;5022258;28;20455;-81
2023/09/02 13:30:40;;;;;;;3.47;1.80;;;;;;;;;;5027253;28;20508;-78
2023/09/02 13:33:11;;;;;;;3.77;1.73;;;;;;;;;;5023584;28;20451;-80
2023/09/02 13:35:45;;;;;;;4.00;1.53;;;;;;;;;;5026460;28;20514;-79
2023/09/02 13:38:13;;;;;;;3.13;1.47;;;;;;;;;;5024554;28;20450;-82
2023/09/02 13:40:43;;;;;;;5.03;1.63;;;;;;;;;;5027085;28;20481;-79
2023/09/02 13:43:18;;;;;;;3.30;1.43;;;;;;;;;;5022668;28;20466;-80
2023/09/02 13:45:46;;;;;;;5.23;1.40;;;;;;;;;;5019438;28;20462;-78
2023/09/02 13:48:13;;;;;;;4.30;1.90;;;;;;;;;;5023345;28;20443;-79
2023/09/02 13:50:45;;;;;;;5.83;1.80;;;;;;;;;;5021180;28;20467;-78
2023/09/02 13:53:16;;;;;;;4.50;1.60;;;;;;;;;;5020573;28;20505;-80
2023/09/02 13:55:45;;;;;;;4.10;1.80;;;;;;;;;;5021562;28;20487;-80
2023/09/02 13:58:15;;;;;;;8.87;2.20;;;;;;;;;;5021941;28;20451;-78
2023/09/02 14:00:55;;;;;;;9.20;2.80;;;;;;;;;;5022360;28;20444;-79
2023/09/02 14:03:35;;;;;;;4.37;2.53;;;;;;;;;;5017985;28;20541;-80
2023/09/02 14:06:12;;;;;;;3.40;1.60;;;;;;;;;;5007595;28;20604;-80
2023/09/02 14:08:44;;;;;;;3.90;1.80;;;;;;;;;;5018478;28;20537;-79
2023/09/02 14:11:12;;;;;;;4.03;1.60;;;;;;;;;;5023381;28;20458;-78
2023/09/02 14:13:40;;;;;;;4.90;1.90;;;;;;;;;;5019855;28;20518;-77
2023/09/02 14:16:09;;;;;;;4.83;1.60;;;;;;;;;;5018390;28;20514;-78
2023/09/02 14:18:37;;;;;;;4.77;1.60;;;;;;;;;;5007993;28;20517;-78
2023/09/02 14:21:06;;;;;;;5.30;2.13;;;;;;;;;;5019753;28;20455;-78
2023/09/02 14:23:34;;;;;;;4.97;1.63;;;;;;;;;;5017482;28;20473;-79
2023/09/02 14:26:02;;;;;;;4.53;1.60;;;;;;;;;;5020225;28;20462;-78
2023/09/02 14:28:33;;;;;;;3.50;1.67;;;;;;;;;;5021026;28;20467;-81
2023/09/02 14:31:02;;;;;;;4.30;1.40;;;;;;;;;;5021728;28;20448;-78
2023/09/02 14:33:37;;;;;;;4.07;1.70;;;;;;;;;;5022303;28;20490;-79
2023/09/02 14:36:08;;;;;;;8.00;4.30;;;;;;;;;;5013726;28;20577;-80
2023/09/02 14:38:36;;;;;;;7.67;2.57;;;;;;;;;;5024809;28;20464;-78
2023/09/02 14:41:03;;;;;;;6.77;2.20;;;;;;;;;;5026167;28;20554;-79
2023/09/02 14:43:35;;;;;;;3.50;1.70;;;;;;;;;;5020811;28;20475;-80
2023/09/02 14:46:02;;;;;;;4.50;2.17;;;;;;;;;;5005677;28;20530;-80
2023/09/02 14:48:33;;;;;;;7.47;2.40;;;;;;;;;;5008165;28;20548;-77
2023/09/02 14:51:01;;;;;;;4.10;1.80;;;;;;;;;;5026883;28;20472;-80
2023/09/02 14:53:30;;;;;;;4.20;1.57;;;;;;;;;;5026291;28;20454;-80
2023/09/02 14:55:58;;;;;;;4.70;1.70;;;;;;;;;;5026124;28;20483;-79
2023/09/02 14:58:26;;;;;;;3.80;1.67;;;;;;;;;;5026393;28;20682;-78
2023/09/02 15:01:00;;;;;;;7.23;2.10;;;;;;;;;;5025195;28;20459;-78
2023/09/02 15:03:33;;;;;;;4.90;2.50;;;;;;;;;;5025105;28;20786;-79